Archival Weather

Chicago O'Hare International

Chicago, Illinois (KORD)

Report from: Friday, September 23, 2022 7:51 PM CDT
Current time: Sunday, December 4, 2022 6:16 AM CST

Current weather
Weather history
Weather forecast

Temperature15.0°C (59.0°F)
Dew point3.9°C (39.0°F)
Winds 5 kts (2.6 m/s, 5.8 mph) South (170°)
Visibility10 mi. (16.1 km)
Clouds Ceiling: Overcast 9,000 ft. (2,743 m)
Altimeter30.07 in.Hg (1018 mB)
Relative humidity47 %
Density altitude-50 ft. (-15 m)
Sea-level pressure101.8 kPa (1018 mB, 30.07 in.Hg)
Remarks Automated weather observing station with precipitation discriminator
Flight conditions Visual Meteorological Conditions
Raw dataKORD 240051Z 17005KT 10SM OVC090 15/04 A3007 RMK AO2 SLP184 T01500039
An error has occurred. This application may no longer respond until reloaded. Reload 🗙